GLO1423 SBCY-SBSP
Flight info
| Callsign | GLO1423 |
|---|---|
| Flight time | 1h 46m |
| Altitude | 39000 |
| Route | DIKUN DCT ASDOV DCT UTLOT |
| Aircraft | B738/M-SDE2E3FGHIRWXY/LB1 |
Departure
| Time | 2026-04-20 15:07 |
|---|---|
| Airport | Várzea Grande–Marechal Rondon International Airport (SBCY) |
Arrival
| Time | 2026-04-20 16:54 |
|---|---|
| Airport | Congonhas–Deputado Freitas Nobre Airport (SBSP) |
| Time | Latitude | Longitude | Altitude | Speed | Heading |
|---|---|---|---|---|---|
| 2026-04-20 14:53 | -15.65082 | -56.11961 | 596 ft | 0 kts | 242° |
| 2026-04-20 14:58 | -15.65081 | -56.11960 | 596 ft | 1 kts | 242° |
| 2026-04-20 14:58 | -15.65071 | -56.11941 | 596 ft | 4 kts | 227° |
| 2026-04-20 14:58 | -15.65052 | -56.11931 | 596 ft | 4 kts | 165° |
| 2026-04-20 14:59 | -15.65033 | -56.11938 | 596 ft | 1 kts | 153° |
| 2026-04-20 14:59 | -15.65030 | -56.11940 | 596 ft | 0 kts | 153° |
| 2026-04-20 15:02 | -15.65067 | -56.11920 | 596 ft | 12 kts | 152° |
| 2026-04-20 15:02 | -15.65152 | -56.11874 | 596 ft | 15 kts | 153° |
| 2026-04-20 15:02 | -15.65252 | -56.11821 | 596 ft | 17 kts | 153° |
| 2026-04-20 15:02 | -15.65362 | -56.11762 | 596 ft | 18 kts | 153° |
| 2026-04-20 15:03 | -15.65471 | -56.11704 | 597 ft | 17 kts | 153° |
| 2026-04-20 15:03 | -15.65577 | -56.11648 | 596 ft | 17 kts | 153° |
| 2026-04-20 15:03 | -15.65678 | -56.11594 | 596 ft | 16 kts | 153° |
| 2026-04-20 15:03 | -15.65776 | -56.11543 | 596 ft | 15 kts | 153° |
| 2026-04-20 15:04 | -15.65871 | -56.11492 | 595 ft | 16 kts | 152° |
| 2026-04-20 15:04 | -15.65978 | -56.11435 | 595 ft | 19 kts | 153° |
| 2026-04-20 15:04 | -15.66094 | -56.11373 | 596 ft | 19 kts | 153° |
| 2026-04-20 15:04 | -15.66208 | -56.11313 | 596 ft | 18 kts | 152° |
| 2026-04-20 15:05 | -15.66247 | -56.11278 | 596 ft | 0 kts | 114° |
| 2026-04-20 15:05 | -15.66248 | -56.11274 | 596 ft | 2 kts | 108° |
| 2026-04-20 15:05 | -15.66241 | -56.11229 | 596 ft | 8 kts | 69° |
| 2026-04-20 15:06 | -15.66213 | -56.11187 | 597 ft | 4 kts | 20° |
| 2026-04-20 15:06 | -15.66191 | -56.11193 | 596 ft | 0 kts | 332° |
| 2026-04-20 15:06 | -15.66188 | -56.11195 | 596 ft | 8 kts | 332° |
| 2026-04-20 15:07 | -15.65904 | -56.11346 | 596 ft | 84 kts | 333° |
| 2026-04-20 15:07 | -15.65177 | -56.11732 | 599 ft | 148 kts | 332° |
| 2026-04-20 15:07 | -15.64175 | -56.12260 | 1098 ft | 162 kts | 332° |
| 2026-04-20 15:07 | -15.63175 | -56.12801 | 1897 ft | 165 kts | 335° |
| 2026-04-20 15:08 | -15.62140 | -56.13355 | 2520 ft | 175 kts | 334° |
| 2026-04-20 15:08 | -15.60961 | -56.13979 | 2811 ft | 204 kts | 335° |
| 2026-04-20 15:08 | -15.59633 | -56.14717 | 3003 ft | 230 kts | 326° |
| 2026-04-20 15:08 | -15.58606 | -56.16049 | 3428 ft | 248 kts | 295° |
| 2026-04-20 15:09 | -15.58357 | -56.17900 | 3743 ft | 273 kts | 262° |
| 2026-04-20 15:09 | -15.59096 | -56.19737 | 4403 ft | 282 kts | 231° |
| 2026-04-20 15:09 | -15.60624 | -56.20991 | 5139 ft | 285 kts | 201° |
| 2026-04-20 15:09 | -15.62520 | -56.21607 | 5912 ft | 287 kts | 193° |
| 2026-04-20 15:10 | -15.64459 | -56.22180 | 6650 ft | 293 kts | 194° |
| 2026-04-20 15:10 | -15.66441 | -56.22718 | 7382 ft | 295 kts | 185° |
| 2026-04-20 15:10 | -15.68452 | -56.22659 | 8167 ft | 294 kts | 172° |
| 2026-04-20 15:10 | -15.70501 | -56.22459 | 8926 ft | 297 kts | 173° |
| 2026-04-20 15:11 | -15.72575 | -56.22265 | 9698 ft | 301 kts | 174° |
| 2026-04-20 15:11 | -15.74685 | -56.22083 | 10342 ft | 310 kts | 174° |
| 2026-04-20 15:11 | -15.76916 | -56.21899 | 10528 ft | 334 kts | 174° |
| 2026-04-20 15:11 | -15.79303 | -56.21707 | 10776 ft | 352 kts | 174° |
| 2026-04-20 15:12 | -15.81771 | -56.21511 | 11335 ft | 358 kts | 175° |
| 2026-04-20 15:12 | -15.84265 | -56.21313 | 12053 ft | 360 kts | 175° |
| 2026-04-20 15:12 | -15.86772 | -56.21113 | 12750 ft | 363 kts | 174° |
| 2026-04-20 15:12 | -15.89241 | -56.20519 | 13325 ft | 368 kts | 153° |
| 2026-04-20 15:13 | -15.91329 | -56.19003 | 14002 ft | 369 kts | 133° |
| 2026-04-20 15:13 | -15.92873 | -56.16885 | 14669 ft | 368 kts | 122° |
| 2026-04-20 15:13 | -15.94260 | -56.14639 | 15315 ft | 371 kts | 121° |
| 2026-04-20 15:13 | -15.95642 | -56.12365 | 15944 ft | 374 kts | 121° |
| 2026-04-20 15:14 | -15.97052 | -56.10083 | 16547 ft | 377 kts | 122° |
| 2026-04-20 15:14 | -15.98494 | -56.07788 | 17160 ft | 380 kts | 122° |
| 2026-04-20 15:14 | -15.99950 | -56.05485 | 17811 ft | 383 kts | 122° |
| 2026-04-20 15:14 | -16.01418 | -56.03164 | 18409 ft | 385 kts | 122° |
| 2026-04-20 15:15 | -16.02894 | -56.00831 | 18918 ft | 388 kts | 122° |
| 2026-04-20 15:15 | -16.04384 | -55.98474 | 19418 ft | 392 kts | 123° |
| 2026-04-20 15:15 | -16.05887 | -55.96095 | 19894 ft | 396 kts | 122° |
| 2026-04-20 15:15 | -16.07401 | -55.93697 | 20432 ft | 398 kts | 123° |
| 2026-04-20 15:16 | -16.08922 | -55.91286 | 20948 ft | 400 kts | 123° |
| 2026-04-20 15:16 | -16.10456 | -55.88855 | 21401 ft | 404 kts | 123° |
| 2026-04-20 15:16 | -16.11987 | -55.86427 | 21846 ft | 407 kts | 123° |
| 2026-04-20 15:16 | -16.13559 | -55.83932 | 22288 ft | 410 kts | 123° |
| 2026-04-20 15:17 | -16.15128 | -55.81442 | 22792 ft | 413 kts | 123° |
| 2026-04-20 15:17 | -16.16706 | -55.78937 | 23284 ft | 415 kts | 123° |
| 2026-04-20 15:17 | -16.18271 | -55.76450 | 23692 ft | 417 kts | 123° |
| 2026-04-20 15:17 | -16.19884 | -55.73888 | 24063 ft | 420 kts | 123° |
| 2026-04-20 15:18 | -16.21469 | -55.71370 | 24423 ft | 422 kts | 124° |
| 2026-04-20 15:18 | -16.23083 | -55.68805 | 24787 ft | 425 kts | 124° |
| 2026-04-20 15:18 | -16.24705 | -55.66225 | 25141 ft | 427 kts | 124° |
| 2026-04-20 15:18 | -16.26336 | -55.63629 | 25463 ft | 430 kts | 124° |
| 2026-04-20 15:19 | -16.27985 | -55.61005 | 25746 ft | 435 kts | 124° |
| 2026-04-20 15:19 | -16.29645 | -55.58362 | 26071 ft | 437 kts | 124° |
| 2026-04-20 15:19 | -16.31310 | -55.55708 | 26419 ft | 438 kts | 124° |
| 2026-04-20 15:19 | -16.32983 | -55.53044 | 26668 ft | 441 kts | 124° |
| 2026-04-20 15:20 | -16.34666 | -55.50362 | 26891 ft | 443 kts | 124° |
| 2026-04-20 15:20 | -16.36356 | -55.47667 | 27142 ft | 446 kts | 124° |
| 2026-04-20 15:20 | -16.38052 | -55.44962 | 27410 ft | 447 kts | 124° |
| 2026-04-20 15:20 | -16.39757 | -55.42243 | 27649 ft | 449 kts | 124° |
| 2026-04-20 15:21 | -16.41468 | -55.39512 | 27885 ft | 451 kts | 124° |
| 2026-04-20 15:21 | -16.43184 | -55.36769 | 28120 ft | 453 kts | 124° |
| 2026-04-20 15:21 | -16.44908 | -55.34015 | 28347 ft | 455 kts | 124° |
| 2026-04-20 15:21 | -16.46639 | -55.31249 | 28568 ft | 457 kts | 124° |
| 2026-04-20 15:22 | -16.48375 | -55.28473 | 28787 ft | 459 kts | 124° |
| 2026-04-20 15:22 | -16.50123 | -55.25678 | 28959 ft | 462 kts | 125° |
| 2026-04-20 15:22 | -16.51880 | -55.22867 | 29129 ft | 464 kts | 125° |
| 2026-04-20 15:22 | -16.53645 | -55.20042 | 29339 ft | 466 kts | 125° |
| 2026-04-20 15:23 | -16.55413 | -55.17210 | 29563 ft | 467 kts | 125° |
| 2026-04-20 15:23 | -16.57188 | -55.14366 | 29767 ft | 469 kts | 125° |
| 2026-04-20 15:23 | -16.58969 | -55.11512 | 29955 ft | 470 kts | 125° |
| 2026-04-20 15:23 | -16.60754 | -55.08652 | 30128 ft | 472 kts | 125° |
| 2026-04-20 15:24 | -16.62523 | -55.05815 | 30286 ft | 473 kts | 125° |
| 2026-04-20 15:24 | -16.64320 | -55.02929 | 30462 ft | 474 kts | 125° |
| 2026-04-20 15:24 | -16.66118 | -55.00043 | 30635 ft | 475 kts | 125° |
| 2026-04-20 15:24 | -16.67915 | -54.97158 | 30827 ft | 476 kts | 125° |
| 2026-04-20 15:25 | -16.69719 | -54.94259 | 30973 ft | 477 kts | 125° |
| 2026-04-20 15:25 | -16.71528 | -54.91351 | 31115 ft | 479 kts | 126° |
| 2026-04-20 15:25 | -16.73345 | -54.88430 | 31221 ft | 481 kts | 126° |
| 2026-04-20 15:25 | -16.75170 | -54.85495 | 31361 ft | 483 kts | 126° |
| 2026-04-20 15:26 | -16.76997 | -54.82554 | 31545 ft | 483 kts | 126° |
| 2026-04-20 15:26 | -16.78822 | -54.79614 | 31772 ft | 482 kts | 126° |
| 2026-04-20 15:26 | -16.80643 | -54.76681 | 32003 ft | 481 kts | 126° |
| 2026-04-20 15:26 | -16.82461 | -54.73751 | 32207 ft | 481 kts | 126° |
| 2026-04-20 15:27 | -16.84281 | -54.70818 | 32392 ft | 481 kts | 126° |
| 2026-04-20 15:27 | -16.86099 | -54.67886 | 32625 ft | 481 kts | 126° |
| 2026-04-20 15:27 | -16.87916 | -54.64955 | 32855 ft | 481 kts | 126° |
| 2026-04-20 15:27 | -16.89732 | -54.62026 | 33046 ft | 481 kts | 126° |
| 2026-04-20 15:28 | -16.91549 | -54.59091 | 33261 ft | 481 kts | 126° |
| 2026-04-20 15:28 | -16.93364 | -54.56158 | 33508 ft | 480 kts | 126° |
| 2026-04-20 15:28 | -16.95151 | -54.53269 | 33711 ft | 480 kts | 126° |
| 2026-04-20 15:28 | -16.96970 | -54.50327 | 33928 ft | 480 kts | 126° |
| 2026-04-20 15:29 | -16.98782 | -54.47396 | 34125 ft | 480 kts | 126° |
| 2026-04-20 15:29 | -17.00593 | -54.44465 | 34364 ft | 479 kts | 126° |
| 2026-04-20 15:29 | -17.02397 | -54.41545 | 34619 ft | 478 kts | 126° |
| 2026-04-20 15:29 | -17.04197 | -54.38630 | 34852 ft | 477 kts | 126° |
| 2026-04-20 15:30 | -17.05993 | -54.35720 | 35086 ft | 476 kts | 126° |
| 2026-04-20 15:30 | -17.07788 | -54.32812 | 35317 ft | 476 kts | 126° |
| 2026-04-20 15:30 | -17.09578 | -54.29910 | 35524 ft | 475 kts | 126° |
| 2026-04-20 15:30 | -17.11370 | -54.27003 | 35737 ft | 475 kts | 127° |
| 2026-04-20 15:31 | -17.13151 | -54.24112 | 35980 ft | 474 kts | 127° |
| 2026-04-20 15:31 | -17.14938 | -54.21209 | 36234 ft | 473 kts | 127° |
| 2026-04-20 15:31 | -17.16715 | -54.18323 | 36453 ft | 472 kts | 127° |
| 2026-04-20 15:31 | -17.18492 | -54.15435 | 36679 ft | 471 kts | 127° |
| 2026-04-20 15:32 | -17.20267 | -54.12549 | 36895 ft | 471 kts | 127° |
| 2026-04-20 15:32 | -17.22035 | -54.09673 | 37115 ft | 470 kts | 127° |
| 2026-04-20 15:32 | -17.23804 | -54.06794 | 37350 ft | 469 kts | 127° |
| 2026-04-20 15:32 | -17.25566 | -54.03925 | 37578 ft | 468 kts | 127° |
| 2026-04-20 15:33 | -17.27327 | -54.01058 | 37771 ft | 468 kts | 127° |
| 2026-04-20 15:33 | -17.29085 | -53.98193 | 37984 ft | 468 kts | 127° |
| 2026-04-20 15:33 | -17.30881 | -53.95366 | 38212 ft | 464 kts | 130° |
| 2026-04-20 15:33 | -17.32844 | -53.92692 | 38436 ft | 461 kts | 134° |
| 2026-04-20 15:34 | -17.34887 | -53.90119 | 38623 ft | 460 kts | 135° |
| 2026-04-20 15:34 | -17.36260 | -53.88433 | 38728 ft | 460 kts | 135° |
| 2026-04-20 15:34 | -17.38341 | -53.85889 | 38865 ft | 459 kts | 135° |
| 2026-04-20 15:34 | -17.40410 | -53.83340 | 38984 ft | 460 kts | 135° |
| 2026-04-20 15:35 | -17.42474 | -53.80769 | 38991 ft | 462 kts | 135° |
| 2026-04-20 15:35 | -17.46574 | -53.75584 | 38991 ft | 461 kts | 134° |
| 2026-04-20 15:36 | -17.51280 | -53.69569 | 38996 ft | 458 kts | 134° |
| 2026-04-20 15:36 | -17.54653 | -53.65249 | 38993 ft | 456 kts | 134° |
| 2026-04-20 15:37 | -17.58664 | -53.60114 | 39001 ft | 455 kts | 134° |
| 2026-04-20 15:37 | -17.62671 | -53.54983 | 38992 ft | 455 kts | 134° |
| 2026-04-20 15:38 | -17.66681 | -53.49844 | 38999 ft | 456 kts | 134° |
| 2026-04-20 15:38 | -17.70675 | -53.44723 | 39003 ft | 457 kts | 134° |
| 2026-04-20 15:39 | -17.74700 | -53.39556 | 39010 ft | 458 kts | 134° |
| 2026-04-20 15:39 | -17.78739 | -53.34368 | 39014 ft | 460 kts | 134° |
| 2026-04-20 15:40 | -17.82790 | -53.29160 | 39010 ft | 461 kts | 135° |
| 2026-04-20 15:40 | -17.86853 | -53.23933 | 39013 ft | 463 kts | 134° |
| 2026-04-20 15:41 | -17.90923 | -53.18690 | 39014 ft | 463 kts | 134° |
| 2026-04-20 15:41 | -17.94995 | -53.13442 | 39013 ft | 464 kts | 134° |
| 2026-04-20 15:42 | -17.99069 | -53.08186 | 39008 ft | 463 kts | 134° |
| 2026-04-20 15:42 | -18.03134 | -53.02939 | 39018 ft | 463 kts | 134° |
| 2026-04-20 15:43 | -18.07196 | -52.97691 | 39010 ft | 462 kts | 135° |
| 2026-04-20 15:43 | -18.11246 | -52.92454 | 39015 ft | 461 kts | 135° |
| 2026-04-20 15:44 | -18.15288 | -52.87224 | 39013 ft | 460 kts | 135° |
| 2026-04-20 15:44 | -18.19319 | -52.82003 | 39009 ft | 459 kts | 135° |
| 2026-04-20 15:45 | -18.23314 | -52.76825 | 39014 ft | 459 kts | 135° |
| 2026-04-20 15:45 | -18.27334 | -52.71611 | 39011 ft | 458 kts | 135° |
| 2026-04-20 15:46 | -18.31352 | -52.66396 | 39012 ft | 458 kts | 135° |
| 2026-04-20 15:46 | -18.35364 | -52.61183 | 39013 ft | 458 kts | 135° |
| 2026-04-20 15:47 | -18.39382 | -52.55960 | 39011 ft | 459 kts | 135° |
| 2026-04-20 15:47 | -18.43400 | -52.50731 | 39019 ft | 460 kts | 135° |
| 2026-04-20 15:48 | -18.47423 | -52.45491 | 39013 ft | 460 kts | 135° |
| 2026-04-20 15:48 | -18.51447 | -52.40245 | 39008 ft | 461 kts | 135° |
| 2026-04-20 15:49 | -18.55475 | -52.34990 | 39006 ft | 461 kts | 135° |
| 2026-04-20 15:49 | -18.59479 | -52.29762 | 39006 ft | 461 kts | 135° |
| 2026-04-20 15:50 | -18.63510 | -52.24494 | 39010 ft | 461 kts | 135° |
| 2026-04-20 15:50 | -18.67540 | -52.19224 | 38998 ft | 462 kts | 135° |
| 2026-04-20 15:51 | -18.71577 | -52.13940 | 39006 ft | 462 kts | 135° |
| 2026-04-20 15:51 | -18.75612 | -52.08653 | 38998 ft | 463 kts | 135° |
| 2026-04-20 15:52 | -18.79648 | -52.03361 | 39003 ft | 463 kts | 135° |
| 2026-04-20 15:52 | -18.83684 | -51.98064 | 38994 ft | 463 kts | 135° |
| 2026-04-20 15:53 | -18.89740 | -51.90109 | 38997 ft | 464 kts | 135° |
| 2026-04-20 15:53 | -18.93776 | -51.84800 | 39000 ft | 463 kts | 135° |
| 2026-04-20 15:54 | -18.97809 | -51.79492 | 38997 ft | 463 kts | 135° |
| 2026-04-20 15:54 | -19.01816 | -51.74212 | 38995 ft | 463 kts | 135° |
| 2026-04-20 15:55 | -19.05847 | -51.68897 | 38995 ft | 463 kts | 135° |
| 2026-04-20 15:55 | -19.09888 | -51.63565 | 38983 ft | 463 kts | 135° |
| 2026-04-20 15:56 | -19.13914 | -51.58247 | 38991 ft | 463 kts | 135° |
| 2026-04-20 15:56 | -19.17931 | -51.52937 | 38994 ft | 462 kts | 135° |
| 2026-04-20 15:57 | -19.21931 | -51.47645 | 38986 ft | 462 kts | 135° |
| 2026-04-20 15:57 | -19.25946 | -51.42328 | 38991 ft | 462 kts | 135° |
| 2026-04-20 15:58 | -19.29964 | -51.37002 | 38986 ft | 462 kts | 135° |
| 2026-04-20 15:58 | -19.33976 | -51.31680 | 38985 ft | 462 kts | 135° |
| 2026-04-20 15:59 | -19.37978 | -51.26366 | 38981 ft | 461 kts | 135° |
| 2026-04-20 15:59 | -19.41952 | -51.21084 | 38984 ft | 460 kts | 135° |
| 2026-04-20 16:00 | -19.45942 | -51.15778 | 39000 ft | 460 kts | 135° |
| 2026-04-20 16:00 | -19.49918 | -51.10486 | 38983 ft | 460 kts | 135° |
| 2026-04-20 16:01 | -19.53905 | -51.05170 | 38987 ft | 460 kts | 135° |
| 2026-04-20 16:01 | -19.57881 | -50.99849 | 38989 ft | 461 kts | 135° |
| 2026-04-20 16:02 | -19.61858 | -50.94554 | 38978 ft | 461 kts | 135° |
| 2026-04-20 16:02 | -19.65861 | -50.89218 | 38992 ft | 461 kts | 135° |
| 2026-04-20 16:03 | -19.69848 | -50.83884 | 38986 ft | 461 kts | 135° |
| 2026-04-20 16:03 | -19.73835 | -50.78549 | 38994 ft | 461 kts | 135° |
| 2026-04-20 16:04 | -19.77821 | -50.73211 | 38996 ft | 462 kts | 135° |
| 2026-04-20 16:04 | -19.81806 | -50.67880 | 38991 ft | 460 kts | 135° |
| 2026-04-20 16:05 | -19.85764 | -50.62540 | 38996 ft | 459 kts | 135° |
| 2026-04-20 16:05 | -19.89712 | -50.57217 | 38990 ft | 457 kts | 135° |
| 2026-04-20 16:06 | -19.93650 | -50.51936 | 38987 ft | 460 kts | 135° |
| 2026-04-20 16:06 | -19.97640 | -50.46611 | 38995 ft | 461 kts | 135° |
| 2026-04-20 16:07 | -20.01598 | -50.41211 | 38986 ft | 463 kts | 135° |
| 2026-04-20 16:07 | -20.05600 | -50.35840 | 39000 ft | 465 kts | 134° |
| 2026-04-20 16:08 | -20.09607 | -50.30443 | 38996 ft | 464 kts | 135° |
| 2026-04-20 16:08 | -20.13896 | -50.25392 | 38993 ft | 456 kts | 143° |
| 2026-04-20 16:09 | -20.18557 | -50.20845 | 38992 ft | 453 kts | 144° |
| 2026-04-20 16:09 | -20.23246 | -50.16333 | 38998 ft | 455 kts | 144° |
| 2026-04-20 16:10 | -20.27909 | -50.11755 | 38999 ft | 455 kts | 143° |
| 2026-04-20 16:10 | -20.32535 | -50.07164 | 38998 ft | 454 kts | 143° |
| 2026-04-20 16:11 | -20.37144 | -50.02578 | 38998 ft | 453 kts | 143° |
| 2026-04-20 16:11 | -20.41742 | -49.97995 | 39006 ft | 452 kts | 143° |
| 2026-04-20 16:12 | -20.46312 | -49.93448 | 39008 ft | 452 kts | 143° |
| 2026-04-20 16:12 | -20.50906 | -49.88874 | 39002 ft | 452 kts | 143° |
| 2026-04-20 16:13 | -20.55493 | -49.84300 | 39003 ft | 451 kts | 143° |
| 2026-04-20 16:13 | -20.60074 | -49.79728 | 39004 ft | 451 kts | 143° |
| 2026-04-20 16:14 | -20.64650 | -49.75156 | 39016 ft | 450 kts | 142° |
| 2026-04-20 16:14 | -20.69221 | -49.70586 | 39013 ft | 450 kts | 142° |
| 2026-04-20 16:15 | -20.73794 | -49.66010 | 39033 ft | 449 kts | 142° |
| 2026-04-20 16:15 | -20.78352 | -49.61445 | 39048 ft | 449 kts | 142° |
| 2026-04-20 16:16 | -20.82905 | -49.56881 | 39059 ft | 448 kts | 142° |
| 2026-04-20 16:16 | -20.87450 | -49.52322 | 39076 ft | 448 kts | 142° |
| 2026-04-20 16:17 | -20.91990 | -49.47762 | 39069 ft | 447 kts | 142° |
| 2026-04-20 16:17 | -20.96524 | -49.43205 | 39061 ft | 447 kts | 142° |
| 2026-04-20 16:18 | -21.01051 | -49.38651 | 39050 ft | 446 kts | 142° |
| 2026-04-20 16:18 | -21.05568 | -49.34104 | 39041 ft | 445 kts | 142° |
| 2026-04-20 16:19 | -21.10050 | -49.29587 | 39015 ft | 445 kts | 142° |
| 2026-04-20 16:19 | -21.14559 | -49.25040 | 39013 ft | 445 kts | 142° |
| 2026-04-20 16:20 | -21.19059 | -49.20497 | 39012 ft | 445 kts | 142° |
| 2026-04-20 16:20 | -21.23563 | -49.15947 | 39028 ft | 444 kts | 141° |
| 2026-04-20 16:21 | -21.28060 | -49.11400 | 39019 ft | 444 kts | 141° |
| 2026-04-20 16:21 | -21.32558 | -49.06848 | 39016 ft | 445 kts | 142° |
| 2026-04-20 16:22 | -21.37052 | -49.02294 | 39023 ft | 444 kts | 142° |
| 2026-04-20 16:22 | -21.40786 | -48.98510 | 39021 ft | 444 kts | 142° |
| 2026-04-20 16:23 | -21.45282 | -48.93947 | 39028 ft | 444 kts | 142° |
| 2026-04-20 16:23 | -21.50494 | -48.88653 | 39023 ft | 444 kts | 142° |
| 2026-04-20 16:24 | -21.54251 | -48.84834 | 39017 ft | 444 kts | 142° |
| 2026-04-20 16:24 | -21.58734 | -48.80273 | 39032 ft | 444 kts | 142° |
| 2026-04-20 16:25 | -21.63211 | -48.75715 | 39034 ft | 443 kts | 142° |
| 2026-04-20 16:25 | -21.67654 | -48.71186 | 39025 ft | 443 kts | 142° |
| 2026-04-20 16:26 | -21.72123 | -48.66627 | 39026 ft | 442 kts | 142° |
| 2026-04-20 16:26 | -21.76583 | -48.62073 | 39026 ft | 442 kts | 142° |
| 2026-04-20 16:27 | -21.81034 | -48.57524 | 39033 ft | 441 kts | 142° |
| 2026-04-20 16:27 | -21.85479 | -48.52977 | 39029 ft | 440 kts | 142° |
| 2026-04-20 16:28 | -21.89909 | -48.48441 | 39032 ft | 439 kts | 142° |
| 2026-04-20 16:28 | -21.94333 | -48.43908 | 39035 ft | 439 kts | 142° |
| 2026-04-20 16:29 | -21.98752 | -48.39376 | 39031 ft | 438 kts | 142° |
| 2026-04-20 16:29 | -22.03162 | -48.34849 | 39038 ft | 438 kts | 142° |
| 2026-04-20 16:30 | -22.07570 | -48.30319 | 39041 ft | 437 kts | 142° |
| 2026-04-20 16:30 | -22.09782 | -48.28047 | 38756 ft | 443 kts | 142° |
| 2026-04-20 16:30 | -22.12017 | -48.25750 | 38221 ft | 443 kts | 142° |
| 2026-04-20 16:31 | -22.14241 | -48.23460 | 37639 ft | 441 kts | 142° |
| 2026-04-20 16:31 | -22.16430 | -48.21206 | 37052 ft | 440 kts | 142° |
| 2026-04-20 16:31 | -22.18637 | -48.18931 | 36480 ft | 439 kts | 141° |
| 2026-04-20 16:31 | -22.20846 | -48.16654 | 35894 ft | 438 kts | 141° |
| 2026-04-20 16:32 | -22.23052 | -48.14379 | 35343 ft | 437 kts | 141° |
| 2026-04-20 16:32 | -22.25237 | -48.12123 | 34907 ft | 434 kts | 141° |
| 2026-04-20 16:32 | -22.27410 | -48.09880 | 34449 ft | 431 kts | 141° |
| 2026-04-20 16:32 | -22.29571 | -48.07648 | 33976 ft | 429 kts | 141° |
| 2026-04-20 16:33 | -22.31720 | -48.05429 | 33499 ft | 426 kts | 141° |
| 2026-04-20 16:33 | -22.33855 | -48.03222 | 33027 ft | 423 kts | 141° |
| 2026-04-20 16:33 | -22.35976 | -48.01030 | 32587 ft | 420 kts | 140° |
| 2026-04-20 16:33 | -22.38080 | -47.98854 | 32151 ft | 418 kts | 140° |
| 2026-04-20 16:34 | -22.40211 | -47.96652 | 31741 ft | 433 kts | 139° |
| 2026-04-20 16:34 | -22.42444 | -47.94345 | 31257 ft | 454 kts | 139° |
| 2026-04-20 16:34 | -22.44764 | -47.91942 | 30769 ft | 464 kts | 138° |
| 2026-04-20 16:34 | -22.47092 | -47.89524 | 30286 ft | 462 kts | 137° |
| 2026-04-20 16:35 | -22.49277 | -47.87039 | 29568 ft | 463 kts | 133° |
| 2026-04-20 16:35 | -22.51314 | -47.84368 | 29027 ft | 457 kts | 130° |
| 2026-04-20 16:35 | -22.53265 | -47.81674 | 28500 ft | 452 kts | 129° |
| 2026-04-20 16:35 | -22.55182 | -47.79008 | 28008 ft | 446 kts | 129° |
| 2026-04-20 16:36 | -22.57091 | -47.76384 | 27526 ft | 441 kts | 130° |
| 2026-04-20 16:36 | -22.58990 | -47.73809 | 27058 ft | 435 kts | 130° |
| 2026-04-20 16:36 | -22.60884 | -47.71268 | 26593 ft | 431 kts | 131° |
| 2026-04-20 16:36 | -22.62762 | -47.68763 | 26137 ft | 427 kts | 131° |
| 2026-04-20 16:37 | -22.64628 | -47.66278 | 25687 ft | 423 kts | 131° |
| 2026-04-20 16:37 | -22.66478 | -47.63815 | 25240 ft | 420 kts | 131° |
| 2026-04-20 16:37 | -22.68319 | -47.61361 | 24784 ft | 418 kts | 131° |
| 2026-04-20 16:37 | -22.70147 | -47.58922 | 24330 ft | 416 kts | 131° |
| 2026-04-20 16:38 | -22.71965 | -47.56495 | 23864 ft | 413 kts | 131° |
| 2026-04-20 16:38 | -22.73768 | -47.54087 | 23382 ft | 410 kts | 131° |
| 2026-04-20 16:38 | -22.75558 | -47.51694 | 22883 ft | 406 kts | 131° |
| 2026-04-20 16:38 | -22.77326 | -47.49329 | 22443 ft | 401 kts | 131° |
| 2026-04-20 16:39 | -22.79063 | -47.47001 | 22103 ft | 395 kts | 131° |
| 2026-04-20 16:39 | -22.80784 | -47.44695 | 21682 ft | 391 kts | 131° |
| 2026-04-20 16:39 | -22.82467 | -47.42440 | 21264 ft | 389 kts | 131° |
| 2026-04-20 16:39 | -22.84183 | -47.40138 | 20839 ft | 387 kts | 131° |
| 2026-04-20 16:40 | -22.85849 | -47.37905 | 20427 ft | 385 kts | 131° |
| 2026-04-20 16:40 | -22.87529 | -47.35650 | 20006 ft | 384 kts | 131° |
| 2026-04-20 16:40 | -22.89202 | -47.33403 | 19591 ft | 382 kts | 131° |
| 2026-04-20 16:40 | -22.90871 | -47.31162 | 19171 ft | 381 kts | 131° |
| 2026-04-20 16:41 | -22.92537 | -47.28921 | 18722 ft | 381 kts | 131° |
| 2026-04-20 16:41 | -22.94199 | -47.26687 | 18287 ft | 379 kts | 131° |
| 2026-04-20 16:41 | -22.95845 | -47.24471 | 17819 ft | 376 kts | 131° |
| 2026-04-20 16:41 | -22.97483 | -47.22268 | 17378 ft | 373 kts | 131° |
| 2026-04-20 16:42 | -22.99104 | -47.20085 | 16952 ft | 370 kts | 131° |
| 2026-04-20 16:42 | -23.00711 | -47.17921 | 16534 ft | 366 kts | 131° |
| 2026-04-20 16:42 | -23.02568 | -47.16080 | 16104 ft | 360 kts | 149° |
| 2026-04-20 16:42 | -23.04831 | -47.14994 | 15709 ft | 354 kts | 165° |
| 2026-04-20 16:43 | -23.07223 | -47.14418 | 15317 ft | 351 kts | 169° |
| 2026-04-20 16:43 | -23.09583 | -47.13930 | 14918 ft | 349 kts | 169° |
| 2026-04-20 16:43 | -23.11990 | -47.13439 | 14504 ft | 347 kts | 169° |
| 2026-04-20 16:43 | -23.14326 | -47.12951 | 14111 ft | 345 kts | 169° |
| 2026-04-20 16:44 | -23.16681 | -47.12446 | 13665 ft | 344 kts | 169° |
| 2026-04-20 16:44 | -23.19023 | -47.11936 | 13213 ft | 342 kts | 168° |
| 2026-04-20 16:44 | -23.21349 | -47.11424 | 12754 ft | 340 kts | 168° |
| 2026-04-20 16:44 | -23.23664 | -47.10913 | 12351 ft | 338 kts | 168° |
| 2026-04-20 16:45 | -23.25966 | -47.10406 | 11942 ft | 338 kts | 168° |
| 2026-04-20 16:45 | -23.28269 | -47.09900 | 11530 ft | 337 kts | 169° |
| 2026-04-20 16:45 | -23.30569 | -47.09397 | 11127 ft | 337 kts | 168° |
| 2026-04-20 16:45 | -23.32862 | -47.08896 | 10742 ft | 336 kts | 168° |
| 2026-04-20 16:46 | -23.35158 | -47.08393 | 10340 ft | 337 kts | 168° |
| 2026-04-20 16:46 | -23.37458 | -47.07889 | 9909 ft | 336 kts | 169° |
| 2026-04-20 16:46 | -23.39720 | -47.07315 | 9495 ft | 333 kts | 160° |
| 2026-04-20 16:46 | -23.41676 | -47.06005 | 9096 ft | 331 kts | 137° |
| 2026-04-20 16:47 | -23.43094 | -47.04063 | 8774 ft | 327 kts | 121° |
| 2026-04-20 16:47 | -23.43923 | -47.01770 | 8475 ft | 325 kts | 108° |
| 2026-04-20 16:47 | -23.44543 | -46.99407 | 8172 ft | 325 kts | 107° |
| 2026-04-20 16:47 | -23.45127 | -46.97042 | 7896 ft | 319 kts | 107° |
| 2026-04-20 16:48 | -23.45692 | -46.94761 | 7536 ft | 306 kts | 107° |
| 2026-04-20 16:48 | -23.46246 | -46.92565 | 7230 ft | 295 kts | 106° |
| 2026-04-20 16:48 | -23.46787 | -46.90447 | 6943 ft | 285 kts | 107° |
| 2026-04-20 16:48 | -23.47312 | -46.88403 | 6689 ft | 275 kts | 107° |
| 2026-04-20 16:49 | -23.47822 | -46.86429 | 6473 ft | 267 kts | 107° |
| 2026-04-20 16:49 | -23.48320 | -46.84507 | 6221 ft | 259 kts | 107° |
| 2026-04-20 16:49 | -23.48795 | -46.82663 | 5995 ft | 247 kts | 107° |
| 2026-04-20 16:49 | -23.49254 | -46.80900 | 5780 ft | 237 kts | 107° |
| 2026-04-20 16:50 | -23.49695 | -46.79205 | 5566 ft | 228 kts | 108° |
| 2026-04-20 16:50 | -23.50107 | -46.77611 | 5326 ft | 217 kts | 108° |
| 2026-04-20 16:50 | -23.50514 | -46.76035 | 5115 ft | 207 kts | 107° |
| 2026-04-20 16:50 | -23.50895 | -46.74563 | 4940 ft | 197 kts | 109° |
| 2026-04-20 16:51 | -23.51597 | -46.73364 | 4799 ft | 186 kts | 146° |
| 2026-04-20 16:51 | -23.52640 | -46.72642 | 4680 ft | 172 kts | 146° |
| 2026-04-20 16:51 | -23.53619 | -46.71915 | 4507 ft | 166 kts | 147° |
| 2026-04-20 16:51 | -23.54550 | -46.71261 | 4281 ft | 159 kts | 148° |
| 2026-04-20 16:52 | -23.55500 | -46.70604 | 4092 ft | 164 kts | 147° |
| 2026-04-20 16:52 | -23.56431 | -46.69958 | 3902 ft | 151 kts | 148° |
| 2026-04-20 16:52 | -23.57271 | -46.69376 | 3732 ft | 137 kts | 148° |
| 2026-04-20 16:52 | -23.58083 | -46.68815 | 3550 ft | 139 kts | 148° |
| 2026-04-20 16:53 | -23.58903 | -46.68243 | 3337 ft | 140 kts | 148° |
| 2026-04-20 16:53 | -23.59724 | -46.67672 | 3147 ft | 138 kts | 148° |
| 2026-04-20 16:53 | -23.60523 | -46.67120 | 3006 ft | 134 kts | 149° |
| 2026-04-20 16:53 | -23.61315 | -46.66572 | 2821 ft | 135 kts | 150° |
| 2026-04-20 16:54 | -23.62118 | -46.66024 | 2628 ft | 137 kts | 150° |
| 2026-04-20 16:54 | -23.62842 | -46.65526 | 2607 ft | 82 kts | 147° |
| 2026-04-20 16:54 | -23.63077 | -46.65374 | 2609 ft | 18 kts | 168° |
| 2026-04-20 16:54 | -23.63167 | -46.65383 | 2605 ft | 10 kts | 192° |
| 2026-04-20 16:55 | -23.63186 | -46.65390 | 2603 ft | 4 kts | 214° |
| 2026-04-20 16:55 | -23.63194 | -46.65423 | 2601 ft | 2 kts | 292° |
| 2026-04-20 16:55 | -23.63179 | -46.65435 | 2601 ft | 4 kts | 325° |
| 2026-04-20 16:55 | -23.63137 | -46.65465 | 2601 ft | 11 kts | 327° |
| 2026-04-20 16:56 | -23.63057 | -46.65514 | 2601 ft | 15 kts | 344° |
| 2026-04-20 16:56 | -23.62962 | -46.65550 | 2602 ft | 14 kts | 327° |
| 2026-04-20 16:56 | -23.62924 | -46.65608 | 2601 ft | 8 kts | 243° |
| 2026-04-20 16:56 | -23.62957 | -46.65666 | 2600 ft | 9 kts | 237° |
| 2026-04-20 16:57 | -23.62980 | -46.65685 | 2600 ft | 4 kts | 178° |
| 2026-04-20 16:57 | -23.63002 | -46.65673 | 2600 ft | 2 kts | 150° |
| 2026-04-20 16:57 | -23.63004 | -46.65672 | 2600 ft | 0 kts | 150° |